Loging...

KPDC, Korea Polar Data Center

Korea Polar Data Center Scientific observations and results from Antarctica shall
be exchanged and made freely available

Browse

Science Keywords

  1. EARTH SCIENCE
  2. > Oceans

Search 23,195 data out of 23,195

Metadata Search Results
No. Title Reg. Date
701 [KOPRI-KPDC-00001516]Continuous monitoring of dissovled inorganic carbon and total alkalinity in the coast of the Jang Bogo Station, Antarctica 2020-11-02
702 [KOPRI-KPDC-00001515]Continuous monitoring of nutrients in the coast of the Jang Bogo Station, Antarctica 2020-11-02
703 [KOPRI-KPDC-00001483]GPS data on ARAON DaDis for Arctic cruise, 2020 2020-10-23
704 [KOPRI-KPDC-00001482]Gyro compass data on ARAON DaDis for Arctic cruise, 2020 2020-10-23
705 [KOPRI-KPDC-00001466]Fluorometer data on ARAON DaDis for Arctic cruise, 2020 2020-10-04
706 [KOPRI-KPDC-00001465]Motion sensor data on ARAON DaDis for Arctic cruise, 2020 2020-10-04
707 [KOPRI-KPDC-00001464]Thermosalinograph data on ARAON DaDis for Arctic cruise, 2020 2020-10-04
708 [KOPRI-KPDC-00001463]Weather data on ARAON DaDis for Arctic cruise, 2020 2020-10-04
709 [KOPRI-KPDC-00001462]Wind data on ARAON DaDis for Arctic cruise, 2020 2020-10-04
710 [KOPRI-KPDC-00001460]Physical and chemical dataset for ARA06B, ARA07B, and ARA08B cruises 2020-09-17
711 [KOPRI-KPDC-00001456]Post-processed upper-ocean (0-100 m) CTD observation data over the Chukchi-East Siberian Seas during 2011-2016 2020-09-07
712 [KOPRI-KPDC-00001452]Nutrient diol index (NDI) values and estimated phosphate concentrations from SPM, surface sediments, and sinking particles in the East Sea 2020-08-26
713 [KOPRI-KPDC-00001454]Compiled data of individual long chain diols from SPM and surface sediments 2020-08-24
714 [KOPRI-KPDC-00001453]Flux of long chain diols (LCDs) and nutrient diol index (NDI) from sinking particles in the East Sea 2020-08-21
715 [KOPRI-KPDC-00001449]GPS data on ARAON DaDis for Antarctic cruise, 2019/2020 2020-06-25
716 [KOPRI-KPDC-00001448]Thermosalinograph data on ARAON DaDis for Antarctic cruise, 2019/2020 2020-06-25
717 [KOPRI-KPDC-00001447]Fluorometer data on ARAON DaDis for Antarctic cruise, 2019/2020 2020-06-25
718 [KOPRI-KPDC-00001446]Gyro compass data on ARAON DaDis for Antarctic cruise, 2019/2020 2020-06-25
719 [KOPRI-KPDC-00001445]Motion sensor data on ARAON DaDis for Antarctic cruise, 2019/2020 2020-06-25
720 [KOPRI-KPDC-00001444]Wind data on ARAON DaDis for Antarctic cruise, 2019/2020 2020-06-25
721 [KOPRI-KPDC-00001443]Weather data on ARAON DaDis for Antarctic cruise, 2019/2020 2020-06-25
722 [KOPRI-KPDC-00001442]LADCP data in the Amundsen Sea in 2020 2020-06-25
723 [KOPRI-KPDC-00001441]CTD data in the Amundsen Sea in 2020 2020-06-25
724 [KOPRI-KPDC-00001440]Mooring data in the Amundsen Sea from 2018 to 2020 #1 2020-06-25
725 [KOPRI-KPDC-00001434]LADCP data observed in the Terra Nova Bay, Ross Sea, in March, 2020 (ANA10C) 2020-04-13
726 [KOPRI-KPDC-00001435]CTD profiles observed in the Terra Nova Bay, Ross Sea, in March, 2020 (ANA10C) 2020-04-13
727 [KOPRI-KPDC-00001431]CTD profiles observed in front of the Thwaites Glacier, Amundsen Sea, in February 2020 (ANA10B) 2020-04-06
728 [KOPRI-KPDC-00001432]LADCP data observed in front of the Thwaites Glacier, Amundsen Sea, in February, 2020 (ANA10B) 2020-04-06
729 [KOPRI-KPDC-00001430]Sea ice carbon data for the East Siberian Sea, Arctic Ocean in 2017 2020-04-02
730 [KOPRI-KPDC-00001396]Wind data on ARAON DaDis for Arctic cruise, 2019 2020-03-04
731 [KOPRI-KPDC-00001241]Phytoplankton abundance in the Amundsen Sea in 2017/2018 2020-03-03
732 [KOPRI-KPDC-00000601]Depth profiles of temperature and salinity in the Ross Sea, Antarctica, in December 2015 2020-01-28
733 [KOPRI-KPDC-00000749]NIWA oceanographic mooring data in the Drygalski Ice Tongue North 2016 2020-01-28
734 [KOPRI-KPDC-00000906]NIWA oceanographic deep mooring data in the Drygalski Ice Tongue 2017 2020-01-28
735 [KOPRI-KPDC-00000898]NIWA oceanographic mooring data in the Drygalski Ice Tongue North 2017 2020-01-28
736 [KOPRI-KPDC-00001060]NIWA oceanographic mooring data in the Drygalski Ice Tongue North 2015 2020-01-28
737 [KOPRI-KPDC-00000896]LADCP data observed in the Terra Nova Bay, Ross Sea, in March, 2018 (ANA08C) 2020-01-28
738 [KOPRI-KPDC-00001065]LADCP data observed in the Terra Nova Bay, Ross Sea, in January, 2017 (ANA07C) 2020-01-28
739 [KOPRI-KPDC-00001061]LADCP data observed in the Terra Nova Bay, Ross Sea, in December, 2015 (ANA06A) 2020-01-28
740 [KOPRI-KPDC-00001064]LADCP data observed in the Terra Nova Bay, Ross Sea, in December, 2014 (ANA05A) 2020-01-28
741 [KOPRI-KPDC-00000895]CTD profiles observed in the Terra Nova Bay, Ross Sea, in March, 2018 (ANA08C) 2020-01-28
742 [KOPRI-KPDC-00001063]CTD profiles observed in the Terra Nova Bay, Ross Sea, in January, 2017 (ANA07C) 2020-01-28
743 [KOPRI-KPDC-00001062]CTD profiles observed in the Terra Nova Bay, Ross Sea, in December, 2014 (ANA05A) 2020-01-28
744 [KOPRI-KPDC-00001422]Surface observation of CH4 in the atmosphere and ocean 2020-01-09
745 [KOPRI-KPDC-00001423]2019 Arctic Araon Cruise (ARA10C) sediment cores (multiple, gravity, and box cores) 2019-12-16
746 [KOPRI-KPDC-00001421]Hydrocasting observation of conductivity, temperature, and depth (CTD) 2019-12-16
747 [KOPRI-KPDC-00001224]ANA09B Seismic Sparker Survey Lines 2019-12-13
748 [KOPRI-KPDC-00001408]ARA10C Sub-bottom profiler Survey Data 2019-12-13
749 [KOPRI-KPDC-00001407]ARA10C Multibeam Survey 2019-11-19
750 [KOPRI-KPDC-00001405]Wind data on ARAON DaDis for Antarctic cruise, 2018/2019 2019-11-12
751 [KOPRI-KPDC-00001404]Wind data on ARAON DaDis for Antarctic cruise, 2017/2018 2019-11-12
752 [KOPRI-KPDC-00001403]Wind data on ARAON DaDis for Antarctic cruise, 2016/2017 2019-11-12
753 [KOPRI-KPDC-00001402]Wind data on ARAON DaDis for Antarctic cruise, 2015/2016 2019-11-12
754 [KOPRI-KPDC-00001401]Wind data on ARAON DaDis for Antarctic cruise, 2014/2015 2019-11-12
755 [KOPRI-KPDC-00001400]Wind data on ARAON DaDis for Antarctic cruise, 2013/2014 2019-11-12
756 [KOPRI-KPDC-00001399]Wind data on ARAON DaDis for Antarctic cruise, 2012/2013 2019-11-12
757 [KOPRI-KPDC-00001398]Wind data on ARAON DaDis for Antarctic cruise, 2011/2012 2019-11-12
758 [KOPRI-KPDC-00001397]Wind data on ARAON DaDis for Antarctic cruise, 2010/2011 2019-11-12
759 [KOPRI-KPDC-00001395]Wind data on ARAON DaDis for Arctic cruise, 2018 2019-11-12
760 [KOPRI-KPDC-00001394]Wind data on ARAON DaDis for Arctic cruise, 2017 2019-11-12
761 [KOPRI-KPDC-00001393]Wind data on ARAON DaDis for Arctic cruise, 2016 2019-11-12
762 [KOPRI-KPDC-00001392]Wind data on ARAON DaDis for Arctic cruise, 2015 2019-11-12
763 [KOPRI-KPDC-00001391]Wind data on ARAON DaDis for Arctic cruise, 2010 2019-11-12
764 [KOPRI-KPDC-00001390]Wind data on ARAON DaDis for Arctic cruise, 2011 2019-11-12
765 [KOPRI-KPDC-00001389]Wind data on ARAON DaDis for Arctic cruise, 2012 2019-11-12
766 [KOPRI-KPDC-00001388]Wind data on ARAON DaDis for Arctic cruise, 2013 2019-11-12
767 [KOPRI-KPDC-00001387]Wind data on ARAON DaDis for Arctic cruise, 2014 2019-11-12
768 [KOPRI-KPDC-00001386]Weather data on ARAON DaDis for Arctic cruise, 2019 2019-11-12
769 [KOPRI-KPDC-00001385]Weather data on ARAON DaDis for Arctic cruise, 2018 2019-11-12
770 [KOPRI-KPDC-00001384]Weather data on ARAON DaDis for Arctic cruise, 2017 2019-11-12
771 [KOPRI-KPDC-00001383]Weather data on ARAON DaDis for Arctic cruise, 2016 2019-11-12
772 [KOPRI-KPDC-00001382]Weather data on ARAON DaDis for Antarctic cruise, 2018/2019 2019-11-12
773 [KOPRI-KPDC-00001381]Weather data on ARAON DaDis for Antarctic cruise, 2017/2018 2019-11-12
774 [KOPRI-KPDC-00001380]Weather data on ARAON DaDis for Antarctic cruise, 2016/2017 2019-11-12
775 [KOPRI-KPDC-00001379]Thermosalinograph data on ARAON DaDis for Antarctic cruise, 2018/2019 2019-11-12
776 [KOPRI-KPDC-00001378]Thermosalinograph data on ARAON DaDis for Antarctic cruise, 2017/2018 2019-11-12
777 [KOPRI-KPDC-00001377]Thermosalinograph data on ARAON DaDis for Antarctic cruise, 2016/2017 2019-11-12
778 [KOPRI-KPDC-00001376]Thermosalinograph data on ARAON DaDis for Antarctic cruise, 2015/2016 2019-11-12
779 [KOPRI-KPDC-00001375]Thermosalinograph data on ARAON DaDis for Antarctic cruise, 2014/2015 2019-11-12
780 [KOPRI-KPDC-00001374]Thermosalinograph data on ARAON DaDis for Antarctic cruise, 2013/2014 2019-11-12
781 [KOPRI-KPDC-00001373]Thermosalinograph data on ARAON DaDis for Antarctic cruise, 2012/2013 2019-11-12
782 [KOPRI-KPDC-00001372]Thermosalinograph data on ARAON DaDis for Antarctic cruise, 2011/2012 2019-11-12
783 [KOPRI-KPDC-00001371]Thermosalinograph data on ARAON DaDis for Antarctic cruise, 2010/2011 2019-11-12
784 [KOPRI-KPDC-00001370]Thermosalinograph data on ARAON DaDis for Arctic cruise, 2019 2019-11-12
785 [KOPRI-KPDC-00001369]Thermosalinograph data on ARAON DaDis for Arctic cruise, 2018 2019-11-12
786 [KOPRI-KPDC-00001368]Thermosalinograph data on ARAON DaDis for Arctic cruise, 2017 2019-11-12
787 [KOPRI-KPDC-00001367]Thermosalinograph data on ARAON DaDis for Arctic cruise, 2016 2019-11-12
788 [KOPRI-KPDC-00001366]Thermosalinograph data on ARAON DaDis for Arctic cruise, 2015 2019-11-12
789 [KOPRI-KPDC-00001365]Thermosalinograph data on ARAON DaDis for Arctic cruise, 2014 2019-11-12
790 [KOPRI-KPDC-00001364]Thermosalinograph data on ARAON DaDis for Arctic cruise, 2013 2019-11-12
791 [KOPRI-KPDC-00001363]Thermosalinograph data on ARAON DaDis for Arctic cruise, 2012 2019-11-12
792 [KOPRI-KPDC-00001362]Thermosalinograph data on ARAON DaDis for Arctic cruise, 2011 2019-11-12
793 [KOPRI-KPDC-00001361]Thermosalinograph data on ARAON DaDis for Arctic cruise, 2010 2019-11-12
794 [KOPRI-KPDC-00001360]Motion sensor data on ARAON DaDis for Antarctic cruise, 2018/2019 2019-11-12
795 [KOPRI-KPDC-00001359]Motion sensor data on ARAON DaDis for Antarctic cruise, 2017/2018 2019-11-12
796 [KOPRI-KPDC-00001358]Motion sensor data on ARAON DaDis for Antarctic cruise, 2016/2017 2019-11-12
797 [KOPRI-KPDC-00001357]Motion sensor data on ARAON DaDis for Antarctic cruise, 2015/2016 2019-11-12
798 [KOPRI-KPDC-00001356]Motion sensor data on ARAON DaDis for Antarctic cruise, 2014/2015 2019-11-12
799 [KOPRI-KPDC-00001355]Motion sensor data on ARAON DaDis for Antarctic cruise, 2013/2014 2019-11-12
800 [KOPRI-KPDC-00001354]Motion sensor data on ARAON DaDis for Antarctic cruise, 2012/2013 2019-11-12